createdAt,value
2019-01-02T00:00:51.068Z,0.00
2019-01-02T00:01:51.050Z,0.00
2019-01-02T00:02:51.021Z,0.00
2019-01-02T00:03:51.002Z,0.00
2019-01-02T00:04:50.971Z,0.00
2019-01-02T00:05:50.957Z,0.00
2019-01-02T00:06:50.931Z,0.00
2019-01-02T00:07:50.906Z,0.00
2019-01-02T00:08:50.880Z,0.00
2019-01-02T00:09:50.862Z,0.00
2019-01-02T00:10:50.834Z,0.00
2019-01-02T00:11:50.809Z,0.00
2019-01-02T00:12:50.789Z,0.00
2019-01-02T00:13:50.766Z,0.00
2019-01-02T00:14:50.743Z,0.00
2019-01-02T00:15:50.770Z,0.00
2019-01-02T00:16:50.699Z,0.00
2019-01-02T00:17:50.677Z,0.00
2019-01-02T00:18:50.653Z,0.00
2019-01-02T00:19:50.632Z,0.00
2019-01-02T00:20:50.607Z,0.00
2019-01-02T00:21:50.585Z,0.00
2019-01-02T00:22:50.561Z,0.00
2019-01-02T00:23:50.533Z,0.00
2019-01-02T00:24:50.516Z,0.00
2019-01-02T00:25:50.492Z,0.00
2019-01-02T00:26:50.469Z,0.00
2019-01-02T00:27:50.450Z,0.00
2019-01-02T00:28:50.423Z,0.00
2019-01-02T00:29:50.398Z,0.00
2019-01-02T00:30:50.376Z,0.00
2019-01-02T00:31:50.355Z,0.00
2019-01-02T00:32:50.327Z,0.00
2019-01-02T00:33:50.303Z,0.00
2019-01-02T00:34:50.286Z,0.00
2019-01-02T00:35:50.262Z,0.00
2019-01-02T00:36:50.236Z,0.00
2019-01-02T00:37:50.213Z,0.00
2019-01-02T00:38:50.188Z,0.00
2019-01-02T00:39:50.171Z,0.00
2019-01-02T00:40:50.145Z,0.00
2019-01-02T00:41:50.123Z,0.00
2019-01-02T00:42:50.099Z,0.00
2019-01-02T00:43:50.073Z,0.00
2019-01-02T00:44:50.057Z,0.00
2019-01-02T00:45:50.033Z,0.00
2019-01-02T00:46:50.008Z,0.00
2019-01-02T00:47:49.980Z,0.00
2019-01-02T00:48:49.962Z,0.00
2019-01-02T00:49:49.938Z,0.00
2019-01-02T00:50:49.960Z,0.00
2019-01-02T00:51:49.889Z,0.00
2019-01-02T00:52:49.877Z,0.00
2019-01-02T00:53:49.844Z,0.00
2019-01-02T00:54:49.828Z,0.00
2019-01-02T00:55:49.799Z,0.00
2019-01-02T00:56:49.786Z,0.00
2019-01-02T00:57:49.756Z,0.00
2019-01-02T00:58:49.732Z,0.00
2019-01-02T00:59:49.706Z,0.00
2019-01-02T01:00:49.688Z,0.00
2019-01-02T01:01:49.660Z,0.00
2019-01-02T01:02:49.638Z,0.00
2019-01-02T01:03:49.617Z,0.00
2019-01-02T01:04:49.599Z,0.00
2019-01-02T01:05:49.567Z,0.00
2019-01-02T01:06:49.547Z,0.00
2019-01-02T01:07:49.520Z,0.00
2019-01-02T01:08:49.498Z,0.00
2019-01-02T01:09:49.476Z,0.00
2019-01-02T01:10:49.455Z,0.00
2019-01-02T01:11:49.436Z,0.00
2019-01-02T01:12:49.409Z,0.00
2019-01-02T01:13:49.382Z,0.00
2019-01-02T01:14:49.358Z,0.00
2019-01-02T01:15:49.340Z,0.00
2019-01-02T01:16:49.318Z,0.00
2019-01-02T01:17:49.288Z,0.00
2019-01-02T01:18:49.268Z,0.00
2019-01-02T01:19:49.246Z,0.00
2019-01-02T01:20:49.226Z,0.00
2019-01-02T01:21:49.198Z,0.00
2019-01-02T01:22:49.175Z,0.00
2019-01-02T01:23:49.155Z,0.00
2019-01-02T01:24:49.126Z,0.00
2019-01-02T01:25:49.107Z,0.00
2019-01-02T01:26:49.085Z,0.00
2019-01-02T01:27:49.061Z,0.00
2019-01-02T01:28:49.036Z,0.00
2019-01-02T01:29:49.010Z,0.00
2019-01-02T01:30:48.992Z,0.00
2019-01-02T01:31:48.967Z,0.00
2019-01-02T01:32:48.945Z,0.00
2019-01-02T01:33:48.916Z,0.00
2019-01-02T01:34:48.897Z,0.00
2019-01-02T01:35:48.875Z,0.00
2019-01-02T01:36:48.853Z,0.00
2019-01-02T01:37:48.828Z,0.00
2019-01-02T01:38:48.811Z,0.00
2019-01-02T01:39:48.780Z,0.00
2019-01-02T01:40:48.755Z,0.00
2019-01-02T01:41:48.737Z,0.00
2019-01-02T01:42:48.710Z,0.00
2019-01-02T01:43:48.691Z,0.00
2019-01-02T01:44:48.665Z,0.00
2019-01-02T01:45:48.645Z,0.00
2019-01-02T01:46:48.616Z,0.00
2019-01-02T01:47:48.596Z,0.00
2019-01-02T01:48:48.573Z,0.00
2019-01-02T01:49:48.553Z,0.00
2019-01-02T01:50:48.527Z,0.00
2019-01-02T01:51:48.507Z,0.00
2019-01-02T01:52:48.480Z,0.00
2019-01-02T01:53:48.464Z,0.00
2019-01-02T01:54:48.432Z,0.00
2019-01-02T01:55:48.406Z,0.00
2019-01-02T01:56:48.400Z,0.00
2019-01-02T01:57:48.364Z,0.00
2019-01-02T01:58:48.341Z,0.00
2019-01-02T01:59:48.323Z,0.00
2019-01-02T02:00:48.298Z,0.00
2019-01-02T02:01:48.277Z,0.00
2019-01-02T02:02:48.248Z,0.00
2019-01-02T02:03:48.232Z,0.00
2019-01-02T02:04:48.200Z,0.00
2019-01-02T02:05:48.177Z,0.00
2019-01-02T02:06:48.153Z,0.00
2019-01-02T02:07:48.132Z,0.00
2019-01-02T02:08:48.108Z,0.00
2019-01-02T02:09:48.088Z,0.00
2019-01-02T02:10:48.059Z,0.00
2019-01-02T02:11:48.043Z,0.00
2019-01-02T02:12:48.016Z,0.00
2019-01-02T02:13:47.994Z,0.00
2019-01-02T02:14:47.979Z,0.00
2019-01-02T02:15:47.949Z,0.00
2019-01-02T02:16:47.922Z,0.00
2019-01-02T02:17:47.898Z,0.00
2019-01-02T02:18:47.882Z,0.00
2019-01-02T02:19:47.857Z,0.00
2019-01-02T02:20:47.830Z,0.00
2019-01-02T02:21:47.806Z,0.00
2019-01-02T02:22:47.789Z,0.00
2019-01-02T02:23:47.761Z,0.00
2019-01-02T02:24:47.740Z,0.00
2019-01-02T02:25:47.718Z,0.00
2019-01-02T02:26:47.692Z,0.00
2019-01-02T02:27:47.671Z,0.00
2019-01-02T02:28:47.662Z,0.00
2019-01-02T02:29:47.632Z,0.00
2019-01-02T02:30:47.601Z,0.00
2019-01-02T02:31:47.573Z,0.00
2019-01-02T02:32:47.564Z,0.00
2019-01-02T02:33:47.527Z,0.00
2019-01-02T02:34:47.507Z,0.00
2019-01-02T02:35:47.485Z,0.00
2019-01-02T02:36:47.460Z,0.00
2019-01-02T02:37:47.435Z,0.00
2019-01-02T02:38:47.416Z,0.00
2019-01-02T02:39:47.391Z,0.00
2019-01-02T02:40:47.368Z,0.00
2019-01-02T02:41:47.346Z,0.00
2019-01-02T02:42:47.321Z,0.00
2019-01-02T02:43:47.301Z,0.00
2019-01-02T02:44:47.281Z,0.00
2019-01-02T02:45:47.251Z,0.00
2019-01-02T02:46:47.226Z,0.00
2019-01-02T02:47:47.206Z,0.00
2019-01-02T02:48:47.182Z,0.00
2019-01-02T02:49:47.160Z,0.00
2019-01-02T02:50:47.137Z,0.00
2019-01-02T02:51:47.112Z,0.00
2019-01-02T02:52:47.089Z,0.00
2019-01-02T02:53:47.062Z,0.00
2019-01-02T02:54:47.045Z,0.00
2019-01-02T02:55:47.015Z,0.00
2019-01-02T02:56:46.994Z,0.00
2019-01-02T02:57:46.974Z,0.00
2019-01-02T02:58:46.950Z,0.00
2019-01-02T02:59:46.927Z,0.00
2019-01-02T03:00:46.903Z,0.00
2019-01-02T03:01:46.881Z,0.00
2019-01-02T03:02:46.858Z,0.00
2019-01-02T03:03:46.831Z,0.00
2019-01-02T03:04:46.806Z,0.00
2019-01-02T03:05:46.785Z,0.00
2019-01-02T03:06:47.314Z,0.00
2019-01-02T03:07:46.738Z,0.00
2019-01-02T03:08:46.719Z,0.00
2019-01-02T03:09:46.690Z,0.00
2019-01-02T03:10:46.674Z,0.00
2019-01-02T03:11:46.661Z,0.00
2019-01-02T03:12:46.622Z,0.00
2019-01-02T03:13:46.601Z,0.00
2019-01-02T03:14:46.578Z,0.00
2019-01-02T03:15:46.553Z,0.00
2019-01-02T03:16:46.534Z,0.00
2019-01-02T03:17:46.510Z,0.00
2019-01-02T03:18:46.482Z,0.00
2019-01-02T03:19:46.458Z,0.00
2019-01-02T03:20:46.440Z,0.00
2019-01-02T03:21:46.420Z,0.00
2019-01-02T03:22:46.388Z,0.00
2019-01-02T03:23:46.367Z,0.00
2019-01-02T03:24:46.348Z,0.00
2019-01-02T03:25:46.322Z,0.00
2019-01-02T03:26:46.297Z,0.00
2019-01-02T03:27:46.286Z,0.00
2019-01-02T03:28:46.256Z,0.00
2019-01-02T03:29:46.234Z,0.00
2019-01-02T03:30:46.209Z,0.00
2019-01-02T03:31:46.182Z,0.00
2019-01-02T03:32:46.160Z,0.00
2019-01-02T03:33:46.144Z,0.00
2019-01-02T03:34:46.116Z,0.00
2019-01-02T03:35:46.088Z,0.00
2019-01-02T03:36:46.074Z,0.00
2019-01-02T03:37:46.046Z,0.00
2019-01-02T03:38:46.024Z,0.00
2019-01-02T03:39:46.000Z,0.00
2019-01-02T03:40:45.980Z,0.00
2019-01-02T03:41:45.956Z,0.00
2019-01-02T03:42:45.935Z,0.00
2019-01-02T03:43:45.906Z,0.00
2019-01-02T03:44:45.884Z,0.00
2019-01-02T03:45:45.864Z,0.00
2019-01-02T03:46:45.834Z,0.00
2019-01-02T03:47:45.816Z,0.00
2019-01-02T03:48:45.793Z,0.00
2019-01-02T03:49:45.770Z,0.00
2019-01-02T03:50:45.750Z,0.00
2019-01-02T03:51:45.722Z,0.00
2019-01-02T03:52:45.702Z,0.00
2019-01-02T03:53:45.682Z,0.00
2019-01-02T03:54:45.652Z,0.00
2019-01-02T03:55:45.633Z,0.00
2019-01-02T03:56:45.608Z,0.00
2019-01-02T03:57:45.587Z,0.00
2019-01-02T03:58:45.562Z,0.00
2019-01-02T03:59:45.538Z,0.00
2019-01-02T04:00:45.521Z,0.00
2019-01-02T04:01:45.493Z,0.00
2019-01-02T04:02:45.476Z,0.00
2019-01-02T04:03:45.473Z,0.00
2019-01-02T04:04:45.426Z,0.00
2019-01-02T04:05:45.402Z,0.00
2019-01-02T04:06:45.378Z,0.00
2019-01-02T04:07:45.352Z,0.00
2019-01-02T04:08:45.334Z,0.00
2019-01-02T04:09:45.318Z,0.00
2019-01-02T04:10:45.290Z,0.00
2019-01-02T04:11:45.265Z,0.00
2019-01-02T04:12:45.240Z,0.00
2019-01-02T04:13:45.214Z,0.00
2019-01-02T04:14:45.194Z,0.00
2019-01-02T04:15:45.174Z,0.00
2019-01-02T04:16:45.148Z,0.00
2019-01-02T04:17:45.126Z,0.00
2019-01-02T04:18:45.105Z,0.00
2019-01-02T04:19:45.082Z,0.00
2019-01-02T04:20:45.055Z,0.00
2019-01-02T04:21:45.039Z,0.00
2019-01-02T04:22:45.010Z,0.00
2019-01-02T04:23:44.988Z,0.00
2019-01-02T04:24:44.966Z,0.00
2019-01-02T04:25:44.943Z,0.00
2019-01-02T04:26:44.921Z,0.00
2019-01-02T04:27:44.893Z,0.00
2019-01-02T04:28:44.877Z,0.00
2019-01-02T04:29:44.850Z,0.00
2019-01-02T04:30:44.824Z,0.00
2019-01-02T04:31:44.808Z,0.00
2019-01-02T04:32:44.782Z,0.00
2019-01-02T04:33:44.761Z,0.00
2019-01-02T04:34:44.742Z,0.00
2019-01-02T04:35:44.710Z,0.00
2019-01-02T04:36:44.688Z,0.00
2019-01-02T04:37:44.673Z,0.00
2019-01-02T04:38:44.646Z,0.00
2019-01-02T04:39:44.620Z,0.00
2019-01-02T04:40:44.597Z,0.00
2019-01-02T04:41:44.576Z,0.00
2019-01-02T04:42:44.552Z,0.00
2019-01-02T04:43:44.536Z,0.00
2019-01-02T04:44:44.506Z,0.00
2019-01-02T04:45:44.483Z,0.00
2019-01-02T04:46:44.460Z,0.00
2019-01-02T04:47:44.440Z,0.00
2019-01-02T04:48:44.416Z,0.00
2019-01-02T04:49:44.394Z,0.00
2019-01-02T04:50:44.373Z,0.00
2019-01-02T04:51:44.348Z,0.00
2019-01-02T04:52:44.324Z,0.00
2019-01-02T04:53:44.300Z,0.00
2019-01-02T04:54:44.276Z,0.00
2019-01-02T04:55:44.257Z,0.00
2019-01-02T04:56:44.234Z,0.00
2019-01-02T04:57:44.214Z,0.00
2019-01-02T04:58:44.181Z,0.00
2019-01-02T04:59:44.162Z,0.00
2019-01-02T05:00:44.139Z,0.00
2019-01-02T05:01:44.118Z,0.00
2019-01-02T05:02:44.099Z,0.00
2019-01-02T05:03:44.070Z,0.00
2019-01-02T05:04:44.046Z,0.00
2019-01-02T05:05:44.027Z,0.00
2019-01-02T05:06:44.002Z,0.00
2019-01-02T05:07:43.980Z,0.00
2019-01-02T05:08:43.957Z,0.00
2019-01-02T05:09:43.931Z,0.00
2019-01-02T05:10:43.916Z,0.00
2019-01-02T05:11:43.886Z,0.00
2019-01-02T05:12:43.868Z,0.00
2019-01-02T05:13:43.842Z,0.00
2019-01-02T05:14:43.813Z,0.00
2019-01-02T05:15:43.794Z,0.00
2019-01-02T05:16:43.774Z,0.00
2019-01-02T05:17:43.749Z,0.00
2019-01-02T05:18:43.731Z,0.00
2019-01-02T05:19:43.703Z,0.00
2019-01-02T05:20:43.679Z,0.00
2019-01-02T05:21:43.657Z,0.00
2019-01-02T05:22:43.630Z,0.00
2019-01-02T05:23:43.607Z,0.00
2019-01-02T05:24:43.587Z,0.00
2019-01-02T05:25:43.564Z,0.00
2019-01-02T05:26:43.545Z,0.00
2019-01-02T05:27:43.521Z,0.00
2019-01-02T05:28:43.495Z,0.00
2019-01-02T05:29:43.471Z,0.00
2019-01-02T05:30:43.454Z,0.00
2019-01-02T05:31:43.426Z,0.00
2019-01-02T05:32:43.402Z,0.00
2019-01-02T05:33:43.385Z,0.00
2019-01-02T05:34:43.355Z,0.00
2019-01-02T05:35:43.339Z,0.00
2019-01-02T05:36:43.309Z,0.00
2019-01-02T05:37:43.288Z,0.00
2019-01-02T05:38:43.263Z,0.00
2019-01-02T05:39:43.243Z,0.00
2019-01-02T05:40:43.217Z,0.00
2019-01-02T05:41:43.195Z,0.00
2019-01-02T05:42:43.171Z,0.00
2019-01-02T05:43:43.153Z,0.00
2019-01-02T05:44:43.134Z,0.00
2019-01-02T05:45:43.106Z,0.00
2019-01-02T05:46:43.079Z,0.00
2019-01-02T05:47:43.060Z,0.00
2019-01-02T05:48:43.032Z,0.00
2019-01-02T05:49:43.009Z,0.00
2019-01-02T05:50:42.989Z,0.00
2019-01-02T05:51:42.964Z,0.00
2019-01-02T05:52:42.944Z,0.00
2019-01-02T05:53:42.919Z,0.00
2019-01-02T05:54:42.897Z,0.00
2019-01-02T05:55:42.872Z,0.00
2019-01-02T05:56:42.851Z,0.00
2019-01-02T05:57:42.833Z,0.00
2019-01-02T05:58:42.855Z,0.00
2019-01-02T05:59:42.787Z,0.00
2019-01-02T06:00:42.756Z,0.00
2019-01-02T06:01:42.737Z,0.00
2019-01-02T06:02:42.709Z,0.00
2019-01-02T06:03:42.686Z,0.00
2019-01-02T06:04:42.667Z,0.00
2019-01-02T06:05:42.647Z,0.00
2019-01-02T06:06:42.621Z,0.00
2019-01-02T06:07:42.597Z,0.00
2019-01-02T06:08:42.575Z,0.00
2019-01-02T06:09:42.552Z,0.00
2019-01-02T06:10:42.530Z,0.00
2019-01-02T06:11:42.508Z,0.00
2019-01-02T06:12:42.482Z,0.00
2019-01-02T06:13:42.468Z,0.00
2019-01-02T06:14:42.442Z,0.00
2019-01-02T06:15:42.416Z,0.00
2019-01-02T06:16:42.399Z,0.00
2019-01-02T06:17:42.379Z,0.00
2019-01-02T06:18:42.342Z,0.00
2019-01-02T06:19:42.322Z,0.00
2019-01-02T06:20:42.302Z,0.00
2019-01-02T06:21:42.283Z,0.00
2019-01-02T06:22:42.256Z,0.00
2019-01-02T06:23:42.235Z,0.00
2019-01-02T06:24:42.206Z,0.00
2019-01-02T06:25:42.190Z,0.00
2019-01-02T06:26:42.163Z,0.00
2019-01-02T06:27:42.141Z,0.00
2019-01-02T06:28:42.119Z,0.00
2019-01-02T06:29:42.097Z,0.00
2019-01-02T06:30:42.073Z,0.00
2019-01-02T06:31:42.045Z,0.00
2019-01-02T06:32:42.025Z,0.00
2019-01-02T06:33:42.002Z,0.00
2019-01-02T06:34:41.977Z,0.00
2019-01-02T06:35:41.955Z,0.00
2019-01-02T06:36:41.937Z,0.00
2019-01-02T06:37:41.912Z,0.00
2019-01-02T06:38:41.887Z,0.00
2019-01-02T06:39:41.861Z,0.00
2019-01-02T06:40:41.843Z,0.00
2019-01-02T06:41:41.818Z,0.00
2019-01-02T06:42:41.800Z,0.00
2019-01-02T06:43:41.773Z,4.00
2019-01-02T06:44:41.752Z,0.00
2019-01-02T06:45:41.727Z,4.00
2019-01-02T06:46:41.703Z,0.00
2019-01-02T06:47:41.682Z,4.00
2019-01-02T06:48:41.655Z,4.00
2019-01-02T06:49:41.633Z,4.00
2019-01-02T06:50:41.607Z,4.00
2019-01-02T06:51:41.591Z,4.00
2019-01-02T06:52:41.561Z,4.00
2019-01-02T06:53:41.542Z,4.00
2019-01-02T06:54:41.517Z,8.00
2019-01-02T06:55:41.493Z,8.00
2019-01-02T06:56:41.469Z,12.00
2019-01-02T06:57:41.452Z,12.00
2019-01-02T06:58:41.425Z,8.00
2019-01-02T06:59:41.402Z,16.00
2019-01-02T07:00:41.383Z,12.00
2019-01-02T07:01:41.362Z,16.00
2019-01-02T07:02:41.332Z,16.00
2019-01-02T07:03:41.315Z,20.00
2019-01-02T07:04:41.287Z,20.00
2019-01-02T07:05:41.264Z,24.00
2019-01-02T07:06:41.257Z,28.00
2019-01-02T07:07:41.218Z,28.00
2019-01-02T07:08:41.209Z,28.00
2019-01-02T07:09:41.169Z,36.00
2019-01-02T07:10:41.151Z,36.00
2019-01-02T07:11:41.126Z,36.00
2019-01-02T07:12:41.111Z,52.00
2019-01-02T07:13:41.077Z,44.00
2019-01-02T07:14:41.055Z,52.00
2019-01-02T07:15:41.035Z,76.00
2019-01-02T07:16:41.012Z,84.00
2019-01-02T07:17:40.991Z,116.00
2019-01-02T07:18:40.966Z,88.00
2019-01-02T07:19:40.947Z,84.00
2019-01-02T07:20:40.923Z,100.00
2019-01-02T07:21:40.896Z,132.00
2019-01-02T07:22:40.877Z,136.00
2019-01-02T07:23:40.847Z,152.00
2019-01-02T07:24:40.825Z,160.00
2019-01-02T07:25:40.803Z,132.00
2019-01-02T07:26:40.781Z,116.00
2019-01-02T07:27:40.755Z,108.00
2019-01-02T07:28:40.738Z,132.00
2019-01-02T07:29:40.713Z,140.00
2019-01-02T07:30:40.691Z,192.00
2019-01-02T07:31:40.665Z,212.00
2019-01-02T07:32:40.650Z,228.00
2019-01-02T07:33:40.620Z,252.00
2019-01-02T07:34:40.895Z,284.00
2019-01-02T07:35:40.573Z,304.00
2019-01-02T07:36:40.557Z,312.00
2019-01-02T07:37:40.525Z,324.00
2019-01-02T07:38:40.568Z,332.00
2019-01-02T07:39:40.493Z,324.00
2019-01-02T07:40:40.457Z,320.00
2019-01-02T07:41:40.439Z,332.00
2019-01-02T07:42:40.461Z,336.00
2019-01-02T07:43:40.389Z,332.00
2019-01-02T07:44:40.367Z,304.00
2019-01-02T07:45:40.345Z,284.00
2019-01-02T07:46:40.317Z,308.00
2019-01-02T07:47:40.296Z,340.00
2019-01-02T07:48:40.272Z,360.00
2019-01-02T07:49:40.249Z,404.00
2019-01-02T07:50:40.230Z,452.00
2019-01-02T07:51:40.203Z,484.00
2019-01-02T07:52:40.187Z,516.00
2019-01-02T07:53:40.160Z,564.00
2019-01-02T07:54:40.134Z,632.00
2019-01-02T07:55:40.115Z,688.00
2019-01-02T07:56:40.088Z,716.00
2019-01-02T07:57:40.065Z,728.00
2019-01-02T07:58:40.048Z,704.00
2019-01-02T07:59:40.015Z,692.00
2019-01-02T08:00:39.992Z,704.00
2019-01-02T08:01:39.973Z,708.00
2019-01-02T08:02:39.955Z,748.00
2019-01-02T08:03:39.925Z,768.00
2019-01-02T08:04:39.908Z,736.00
2019-01-02T08:05:39.878Z,768.00
2019-01-02T08:06:39.854Z,724.00
2019-01-02T08:07:39.828Z,664.00
2019-01-02T08:08:39.811Z,704.00
2019-01-02T08:09:39.789Z,800.00
2019-01-02T08:10:39.760Z,792.00
2019-01-02T08:11:39.740Z,716.00
2019-01-02T08:12:39.714Z,564.00
2019-01-02T08:13:40.947Z,552.00
2019-01-02T08:14:39.674Z,492.00
2019-01-02T08:15:39.647Z,448.00
2019-01-02T08:16:39.626Z,344.00
2019-01-02T08:17:39.597Z,308.00
2019-01-02T08:18:39.579Z,264.00
2019-01-02T08:19:39.554Z,204.00
2019-01-02T08:20:39.534Z,160.00
2019-01-02T08:21:39.510Z,104.00
2019-01-02T08:22:39.486Z,120.00
2019-01-02T08:23:39.458Z,188.00
2019-01-02T08:24:39.449Z,256.00
2019-01-02T08:25:39.414Z,224.00
2019-01-02T08:26:39.392Z,204.00
2019-01-02T08:27:39.368Z,248.00
2019-01-02T08:28:39.343Z,256.00
2019-01-02T08:29:39.321Z,260.00
2019-01-02T08:30:39.304Z,260.00
2019-01-02T08:31:39.278Z,292.00
2019-01-02T08:32:39.259Z,360.00
2019-01-02T08:33:39.230Z,396.00
2019-01-02T08:34:39.208Z,400.00
2019-01-02T08:35:39.186Z,464.00
2019-01-02T08:36:39.159Z,492.00
2019-01-02T08:37:39.138Z,472.00
2019-01-02T08:38:39.115Z,488.00
2019-01-02T08:39:39.094Z,508.00
2019-01-02T08:40:39.070Z,472.00
2019-01-02T08:41:39.048Z,380.00
2019-01-02T08:42:39.022Z,272.00
2019-01-02T08:43:38.999Z,296.00
2019-01-02T08:44:38.976Z,308.00
2019-01-02T08:45:38.956Z,328.00
2019-01-02T08:46:38.930Z,304.00
2019-01-02T08:47:38.909Z,276.00
2019-01-02T08:48:38.881Z,240.00
2019-01-02T08:49:38.857Z,300.00
2019-01-02T08:50:38.844Z,340.00
2019-01-02T08:51:38.812Z,304.00
2019-01-02T08:52:38.789Z,420.00
2019-01-02T08:53:38.769Z,436.00
2019-01-02T08:54:38.744Z,464.00
2019-01-02T08:55:38.723Z,700.00
2019-01-02T08:56:38.695Z,852.00
2019-01-02T08:57:38.675Z,836.00
2019-01-02T08:58:38.651Z,748.00
2019-01-02T08:59:38.624Z,740.00
2019-01-02T09:00:38.604Z,704.00
2019-01-02T09:01:38.579Z,600.00
2019-01-02T09:02:38.558Z,612.00
2019-01-02T09:03:38.532Z,676.00
2019-01-02T09:04:38.520Z,700.00
2019-01-02T09:05:38.489Z,696.00
2019-01-02T09:06:38.463Z,716.00
2019-01-02T09:07:38.440Z,820.00
2019-01-02T09:08:38.416Z,972.00
2019-01-02T09:09:38.393Z,1056.00
2019-01-02T09:10:38.370Z,1168.00
2019-01-02T09:11:38.345Z,1348.00
2019-01-02T09:12:38.322Z,1384.00
2019-01-02T09:13:38.300Z,1576.00
2019-01-02T09:14:38.299Z,2212.00
2019-01-02T09:15:38.256Z,3156.00
2019-01-02T09:16:38.230Z,3616.00
2019-01-02T09:17:38.221Z,3948.00
2019-01-02T09:18:38.185Z,4092.00
2019-01-02T09:19:38.160Z,3320.00
2019-01-02T09:20:38.135Z,3512.00
2019-01-02T09:21:38.115Z,4092.00
2019-01-02T09:22:38.088Z,4688.00
2019-01-02T09:23:38.065Z,4028.00
2019-01-02T09:24:38.044Z,3520.00
2019-01-02T09:25:38.023Z,3572.00
2019-01-02T09:26:37.995Z,3048.00
2019-01-02T09:27:37.973Z,2704.00
2019-01-02T09:28:37.951Z,2144.00
2019-01-02T09:29:37.938Z,2016.00
2019-01-02T09:30:37.906Z,1960.00
2019-01-02T09:31:37.883Z,1632.00
2019-01-02T09:32:37.859Z,2020.00
2019-01-02T09:33:37.832Z,2068.00
2019-01-02T09:34:37.811Z,1944.00
2019-01-02T09:35:37.788Z,1952.00
2019-01-02T09:36:37.771Z,1832.00
2019-01-02T09:37:37.744Z,2092.00
2019-01-02T09:38:37.720Z,2032.00
2019-01-02T09:39:37.693Z,2292.00
2019-01-02T09:40:37.699Z,2168.00
2019-01-02T09:41:37.649Z,1936.00
2019-01-02T09:42:37.626Z,1864.00
2019-01-02T09:43:37.608Z,1948.00
2019-01-02T09:44:37.593Z,2228.00
2019-01-02T09:45:37.555Z,2732.00
2019-01-02T09:46:37.533Z,2804.00
2019-01-02T09:47:37.509Z,2744.00
2019-01-02T09:48:37.499Z,2684.00
2019-01-02T09:49:37.559Z,2404.00
2019-01-02T09:50:37.444Z,1836.00
2019-01-02T09:51:37.420Z,1348.00
2019-01-02T09:52:37.392Z,1604.00
2019-01-02T09:53:37.368Z,1704.00
2019-01-02T09:54:37.345Z,1568.00
2019-01-02T09:55:37.323Z,1376.00
2019-01-02T09:56:37.302Z,1648.00
2019-01-02T09:57:37.277Z,2060.00
2019-01-02T09:58:37.253Z,2272.00
2019-01-02T09:59:37.231Z,2836.00
2019-01-02T10:00:37.207Z,3848.00
2019-01-02T10:01:37.183Z,4448.00
2019-01-02T10:02:37.159Z,4208.00
2019-01-02T10:03:37.134Z,3436.00
2019-01-02T10:04:37.112Z,2860.00
2019-01-02T10:05:37.093Z,2888.00
2019-01-02T10:06:37.075Z,3112.00
2019-01-02T10:07:37.070Z,2916.00
2019-01-02T10:08:37.027Z,2892.00
2019-01-02T10:09:36.994Z,3056.00
2019-01-02T10:10:36.972Z,3328.00
2019-01-02T10:11:36.956Z,3796.00
2019-01-02T10:12:36.930Z,4580.00
2019-01-02T10:13:36.906Z,5156.00
2019-01-02T10:14:36.887Z,6032.00
2019-01-02T10:15:36.859Z,6252.00
2019-01-02T10:16:36.836Z,6548.00
2019-01-02T10:17:36.810Z,6612.00
2019-01-02T10:18:36.790Z,7284.00
2019-01-02T10:19:36.764Z,7044.00
2019-01-02T10:20:36.757Z,6280.00
2019-01-02T10:21:36.720Z,5284.00
2019-01-02T10:22:36.706Z,4648.00
2019-01-02T10:23:36.672Z,4692.00
2019-01-02T10:24:36.658Z,5024.00
2019-01-02T10:25:36.627Z,6276.00
2019-01-02T10:26:36.610Z,7180.00
2019-01-02T10:27:36.582Z,7728.00
2019-01-02T10:28:36.562Z,13444.00
2019-01-02T10:29:36.538Z,14208.00
2019-01-02T10:30:36.511Z,14656.00
2019-01-02T10:31:36.495Z,13936.00
2019-01-02T10:32:36.470Z,13864.00
2019-01-02T10:33:36.445Z,9324.00
2019-01-02T10:34:36.423Z,8256.00
2019-01-02T10:35:36.402Z,7448.00
2019-01-02T10:36:36.380Z,6944.00
2019-01-02T10:37:36.354Z,6888.00
2019-01-02T10:38:36.330Z,7048.00
2019-01-02T10:39:36.312Z,7024.00
2019-01-02T10:40:36.286Z,6912.00
2019-01-02T10:41:36.266Z,6812.00
2019-01-02T10:42:36.242Z,6764.00
2019-01-02T10:43:36.220Z,6924.00
2019-01-02T10:44:36.196Z,6440.00
2019-01-02T10:45:36.171Z,7468.00
2019-01-02T10:46:36.153Z,8024.00
2019-01-02T10:47:36.128Z,7912.00
2019-01-02T10:48:36.108Z,7532.00
2019-01-02T10:49:36.097Z,7432.00
2019-01-02T10:50:36.065Z,7404.00
2019-01-02T10:51:36.040Z,6688.00
2019-01-02T10:52:36.019Z,7396.00
2019-01-02T10:53:35.996Z,7512.00
2019-01-02T10:54:35.975Z,7616.00
2019-01-02T10:55:35.950Z,7456.00
2019-01-02T10:56:35.936Z,7212.00
2019-01-02T10:57:35.907Z,6872.00
2019-01-02T10:58:36.680Z,7040.00
2019-01-02T10:59:35.861Z,6556.00
2019-01-02T11:00:35.842Z,6832.00
2019-01-02T11:01:35.819Z,6716.00
2019-01-02T11:02:35.798Z,6072.00
2019-01-02T11:03:35.770Z,5504.00
2019-01-02T11:04:35.754Z,5636.00
2019-01-02T11:05:35.732Z,6072.00
2019-01-02T11:06:35.706Z,6364.00
2019-01-02T11:07:35.688Z,6172.00
2019-01-02T11:08:35.667Z,5324.00
2019-01-02T11:09:35.640Z,4932.00
2019-01-02T11:10:35.626Z,4668.00
2019-01-02T11:11:35.596Z,4408.00
2019-01-02T11:12:35.578Z,4152.00
2019-01-02T11:13:35.554Z,4024.00
2019-01-02T11:14:35.533Z,4732.00
2019-01-02T11:15:35.510Z,6420.00
2019-01-02T11:16:35.488Z,7152.00
2019-01-02T11:17:35.466Z,8504.00
2019-01-02T11:18:35.444Z,7992.00
2019-01-02T11:19:35.420Z,5224.00
2019-01-02T11:20:35.404Z,5040.00
2019-01-02T11:21:35.380Z,5152.00
2019-01-02T11:22:35.357Z,3476.00
2019-01-02T11:23:35.333Z,5000.00
2019-01-02T11:24:35.314Z,5424.00
2019-01-02T11:25:35.290Z,6228.00
2019-01-02T11:27:35.249Z,6092.00
2019-01-02T11:28:35.224Z,6040.00
2019-01-02T11:29:35.202Z,5992.00
2019-01-02T11:30:35.182Z,5944.00
2019-01-02T11:31:35.160Z,5900.00
2019-01-02T11:32:35.138Z,5908.00
2019-01-02T11:33:35.115Z,5900.00
2019-01-02T11:34:35.095Z,5932.00
2019-01-02T11:35:35.074Z,5912.00
2019-01-02T11:36:35.051Z,6040.00
2019-01-02T11:37:35.036Z,6000.00
2019-01-02T11:38:35.006Z,5896.00
2019-01-02T11:39:34.982Z,5816.00
2019-01-02T11:40:34.961Z,6264.00
2019-01-02T11:41:34.939Z,6628.00
2019-01-02T11:42:34.919Z,6852.00
2019-01-02T11:43:34.897Z,7064.00
2019-01-02T11:44:34.872Z,4036.00
2019-01-02T11:45:34.852Z,5400.00
2019-01-02T11:46:34.836Z,6888.00
2019-01-02T11:47:34.810Z,6316.00
2019-01-02T11:48:34.789Z,5244.00
2019-01-02T11:49:34.770Z,4596.00
2019-01-02T11:50:34.756Z,4020.00
2019-01-02T11:51:34.719Z,4928.00
2019-01-02T11:52:34.700Z,5628.00
2019-01-02T11:53:34.678Z,7112.00
2019-01-02T11:54:34.660Z,6680.00
2019-01-02T11:55:34.644Z,6056.00
2019-01-02T11:56:34.613Z,4356.00
2019-01-02T11:57:34.594Z,3584.00
2019-01-02T11:58:34.568Z,2976.00
2019-01-02T11:59:34.547Z,3496.00
2019-01-02T12:00:34.527Z,5680.00
2019-01-02T12:01:34.510Z,5292.00
2019-01-02T12:02:34.482Z,4440.00
2019-01-02T12:03:34.461Z,5204.00
2019-01-02T12:04:34.439Z,4104.00
2019-01-02T12:05:34.419Z,6876.00
2019-01-02T12:06:34.394Z,6952.00
2019-01-02T12:07:35.064Z,6296.00
2019-01-02T12:08:34.352Z,5708.00
2019-01-02T12:09:34.333Z,5504.00
2019-01-02T12:10:34.309Z,3556.00
2019-01-02T12:11:34.291Z,3100.00
2019-01-02T12:12:34.265Z,5680.00
2019-01-02T12:13:34.249Z,4780.00
2019-01-02T12:14:34.225Z,3668.00
2019-01-02T12:15:34.207Z,3144.00
2019-01-02T12:16:34.183Z,3100.00
2019-01-02T12:17:34.161Z,5664.00
2019-01-02T12:18:34.140Z,5716.00
2019-01-02T12:19:34.123Z,5792.00
2019-01-02T12:20:34.099Z,5412.00
2019-01-02T12:21:34.077Z,4600.00
2019-01-02T12:22:34.051Z,4236.00
2019-01-02T12:23:34.035Z,4564.00
2019-01-02T12:24:34.014Z,5084.00
2019-01-02T12:25:33.985Z,4644.00
2019-01-02T12:26:33.971Z,4340.00
2019-01-02T12:27:33.942Z,4152.00
2019-01-02T12:28:33.925Z,4092.00
2019-01-02T12:29:33.911Z,4024.00
2019-01-02T12:30:33.876Z,3964.00
2019-01-02T12:31:33.857Z,3912.00
2019-01-02T12:32:33.835Z,3888.00
2019-01-02T12:33:33.815Z,4116.00
2019-01-02T12:34:33.797Z,4144.00
2019-01-02T12:35:33.770Z,4024.00
2019-01-02T12:36:33.751Z,3952.00
2019-01-02T12:37:33.730Z,3852.00
2019-01-02T12:38:33.707Z,3788.00
2019-01-02T12:39:33.685Z,3696.00
2019-01-02T12:40:33.657Z,3392.00
2019-01-02T12:41:33.643Z,3872.00
2019-01-02T12:42:33.617Z,2988.00
2019-01-02T12:43:33.598Z,2584.00
2019-01-02T12:44:33.579Z,4352.00
2019-01-02T12:45:33.552Z,4096.00
2019-01-02T12:46:33.530Z,4660.00
2019-01-02T12:47:33.509Z,4336.00
2019-01-02T12:48:33.492Z,4212.00
2019-01-02T12:49:33.470Z,4216.00